sensor_id;sensor_type;location;lat;lon;timestamp;P1;durP1;ratioP1;P2;durP2;ratioP2
30173;SDS011;16985;50.814;8.530;2023-08-21T00:01:30;14.48;;;8.85;;
30173;SDS011;16985;50.814;8.530;2023-08-21T00:03:55;12.65;;;8.23;;
30173;SDS011;16985;50.814;8.530;2023-08-21T00:06:21;11.95;;;9.00;;
30173;SDS011;16985;50.814;8.530;2023-08-21T00:08:47;16.63;;;9.30;;
30173;SDS011;16985;50.814;8.530;2023-08-21T00:11:13;11.55;;;8.60;;
30173;SDS011;16985;50.814;8.530;2023-08-21T00:13:39;16.35;;;9.00;;
30173;SDS011;16985;50.814;8.530;2023-08-21T00:16:04;17.95;;;9.35;;
30173;SDS011;16985;50.814;8.530;2023-08-21T00:18:30;10.93;;;9.07;;
30173;SDS011;16985;50.814;8.530;2023-08-21T00:20:56;14.15;;;9.63;;
30173;SDS011;16985;50.814;8.530;2023-08-21T00:23:22;19.17;;;9.25;;
30173;SDS011;16985;50.814;8.530;2023-08-21T00:25:48;12.38;;;8.95;;
30173;SDS011;16985;50.814;8.530;2023-08-21T00:28:14;14.15;;;8.90;;
30173;SDS011;16985;50.814;8.530;2023-08-21T00:30:39;14.60;;;8.82;;
30173;SDS011;16985;50.814;8.530;2023-08-21T00:33:09;10.13;;;8.43;;
30173;SDS011;16985;50.814;8.530;2023-08-21T00:35:35;13.68;;;9.23;;
30173;SDS011;16985;50.814;8.530;2023-08-21T00:38:01;14.07;;;9.15;;
30173;SDS011;16985;50.814;8.530;2023-08-21T00:40:27;13.45;;;8.43;;
30173;SDS011;16985;50.814;8.530;2023-08-21T00:42:53;12.05;;;7.88;;
30173;SDS011;16985;50.814;8.530;2023-08-21T00:45:19;13.05;;;8.27;;
30173;SDS011;16985;50.814;8.530;2023-08-21T00:47:45;8.93;;;7.88;;
30173;SDS011;16985;50.814;8.530;2023-08-21T00:50:11;8.80;;;7.32;;
30173;SDS011;16985;50.814;8.530;2023-08-21T00:52:39;11.27;;;8.18;;
30173;SDS011;16985;50.814;8.530;2023-08-21T00:55:08;17.50;;;8.10;;
30173;SDS011;16985;50.814;8.530;2023-08-21T00:57:35;12.20;;;7.63;;
30173;SDS011;16985;50.814;8.530;2023-08-21T01:00:02;13.07;;;9.23;;
30173;SDS011;16985;50.814;8.530;2023-08-21T01:02:30;12.38;;;7.60;;
30173;SDS011;16985;50.814;8.530;2023-08-21T01:04:55;10.40;;;7.63;;
30173;SDS011;16985;50.814;8.530;2023-08-21T01:07:21;16.85;;;8.65;;
30173;SDS011;16985;50.814;8.530;2023-08-21T01:09:50;15.23;;;7.47;;
30173;SDS011;16985;50.814;8.530;2023-08-21T01:15:13;7.80;;;6.32;;
30173;SDS011;16985;50.814;8.530;2023-08-21T01:17:41;9.27;;;7.27;;
30173;SDS011;16985;50.814;8.530;2023-08-21T01:20:08;17.33;;;7.50;;
30173;SDS011;16985;50.814;8.530;2023-08-21T01:22:36;10.25;;;7.95;;
30173;SDS011;16985;50.814;8.530;2023-08-21T01:25:06;9.75;;;6.75;;
30173;SDS011;16985;50.814;8.530;2023-08-21T01:27:36;11.43;;;7.00;;
30173;SDS011;16985;50.814;8.530;2023-08-21T01:30:03;14.93;;;7.07;;
30173;SDS011;16985;50.814;8.530;2023-08-21T01:32:35;10.32;;;5.93;;
30173;SDS011;16985;50.814;8.530;2023-08-21T01:35:27;9.73;;;6.53;;
30173;SDS011;16985;50.814;8.530;2023-08-21T01:37:55;12.00;;;7.10;;
30173;SDS011;16985;50.814;8.530;2023-08-21T01:40:21;9.13;;;6.40;;
30173;SDS011;16985;50.814;8.530;2023-08-21T01:42:48;11.75;;;7.43;;
30173;SDS011;16985;50.814;8.530;2023-08-21T01:45:15;9.82;;;6.78;;
30173;SDS011;16985;50.814;8.530;2023-08-21T01:47:42;8.35;;;6.10;;
30173;SDS011;16985;50.814;8.530;2023-08-21T01:50:08;8.27;;;6.37;;
30173;SDS011;16985;50.814;8.530;2023-08-21T01:52:34;10.82;;;6.07;;
30173;SDS011;16985;50.814;8.530;2023-08-21T01:55:00;10.95;;;6.68;;
30173;SDS011;16985;50.814;8.530;2023-08-21T01:57:26;16.75;;;7.22;;
30173;SDS011;16985;50.814;8.530;2023-08-21T01:59:51;12.43;;;7.25;;
30173;SDS011;16985;50.814;8.530;2023-08-21T02:02:17;13.15;;;6.97;;
30173;SDS011;16985;50.814;8.530;2023-08-21T02:04:43;14.90;;;6.45;;
30173;SDS011;16985;50.814;8.530;2023-08-21T02:07:09;8.38;;;6.68;;
30173;SDS011;16985;50.814;8.530;2023-08-21T02:09:35;9.95;;;6.72;;
30173;SDS011;16985;50.814;8.530;2023-08-21T02:12:00;7.45;;;5.60;;
30173;SDS011;16985;50.814;8.530;2023-08-21T02:14:26;12.93;;;6.88;;
30173;SDS011;16985;50.814;8.530;2023-08-21T02:16:54;13.57;;;8.07;;
30173;SDS011;16985;50.814;8.530;2023-08-21T02:19:20;11.98;;;7.18;;
30173;SDS011;16985;50.814;8.530;2023-08-21T02:21:46;13.35;;;6.65;;
30173;SDS011;16985;50.814;8.530;2023-08-21T02:24:12;13.82;;;8.90;;
30173;SDS011;16985;50.814;8.530;2023-08-21T02:26:38;13.55;;;8.00;;
30173;SDS011;16985;50.814;8.530;2023-08-21T02:29:03;18.25;;;10.02;;
30173;SDS011;16985;50.814;8.530;2023-08-21T02:31:29;28.98;;;13.75;;
30173;SDS011;16985;50.814;8.530;2023-08-21T02:33:55;21.15;;;12.60;;
30173;SDS011;16985;50.814;8.530;2023-08-21T02:36:23;21.73;;;11.77;;
30173;SDS011;16985;50.814;8.530;2023-08-21T02:38:50;30.20;;;13.60;;
30173;SDS011;16985;50.814;8.530;2023-08-21T02:41:16;27.20;;;12.57;;
30173;SDS011;16985;50.814;8.530;2023-08-21T02:43:43;25.00;;;12.90;;
30173;SDS011;16985;50.814;8.530;2023-08-21T02:46:09;20.98;;;11.70;;
30173;SDS011;16985;50.814;8.530;2023-08-21T02:48:35;15.25;;;9.63;;
30173;SDS011;16985;50.814;8.530;2023-08-21T02:51:00;14.80;;;9.27;;
30173;SDS011;16985;50.814;8.530;2023-08-21T02:53:28;14.18;;;8.52;;
30173;SDS011;16985;50.814;8.530;2023-08-21T02:55:53;13.40;;;8.23;;
30173;SDS011;16985;50.814;8.530;2023-08-21T02:58:19;12.43;;;7.10;;
30173;SDS011;16985;50.814;8.530;2023-08-21T03:00:45;11.05;;;6.95;;
30173;SDS011;16985;50.814;8.530;2023-08-21T03:03:11;9.90;;;7.05;;
30173;SDS011;16985;50.814;8.530;2023-08-21T03:05:37;11.43;;;7.32;;
30173;SDS011;16985;50.814;8.530;2023-08-21T03:08:03;12.00;;;7.22;;
30173;SDS011;16985;50.814;8.530;2023-08-21T03:10:30;11.90;;;7.15;;
30173;SDS011;16985;50.814;8.530;2023-08-21T03:12:59;11.38;;;7.38;;
30173;SDS011;16985;50.814;8.530;2023-08-21T03:15:25;9.65;;;7.70;;
30173;SDS011;16985;50.814;8.530;2023-08-21T03:17:51;11.73;;;7.50;;
30173;SDS011;16985;50.814;8.530;2023-08-21T03:20:17;9.27;;;7.05;;
30173;SDS011;16985;50.814;8.530;2023-08-21T03:22:43;12.43;;;7.18;;
30173;SDS011;16985;50.814;8.530;2023-08-21T03:25:09;10.50;;;6.57;;
30173;SDS011;16985;50.814;8.530;2023-08-21T03:27:36;11.98;;;8.27;;
30173;SDS011;16985;50.814;8.530;2023-08-21T03:30:05;10.70;;;6.80;;
30173;SDS011;16985;50.814;8.530;2023-08-21T03:32:32;9.40;;;7.03;;
30173;SDS011;16985;50.814;8.530;2023-08-21T03:34:58;10.77;;;7.05;;
30173;SDS011;16985;50.814;8.530;2023-08-21T03:37:24;11.23;;;6.43;;
30173;SDS011;16985;50.814;8.530;2023-08-21T03:39:50;12.43;;;6.57;;
30173;SDS011;16985;50.814;8.530;2023-08-21T03:42:16;9.43;;;6.40;;
30173;SDS011;16985;50.814;8.530;2023-08-21T03:44:44;10.65;;;5.70;;
30173;SDS011;16985;50.814;8.530;2023-08-21T03:47:10;9.50;;;5.57;;
30173;SDS011;16985;50.814;8.530;2023-08-21T03:49:48;11.20;;;6.43;;
30173;SDS011;16985;50.814;8.530;2023-08-21T03:52:14;8.32;;;5.93;;
30173;SDS011;16985;50.814;8.530;2023-08-21T03:54:40;12.98;;;5.93;;
30173;SDS011;16985;50.814;8.530;2023-08-21T03:57:07;7.85;;;6.63;;
30173;SDS011;16985;50.814;8.530;2023-08-21T03:59:33;13.23;;;7.53;;
30173;SDS011;16985;50.814;8.530;2023-08-21T04:02:00;11.50;;;6.25;;
30173;SDS011;16985;50.814;8.530;2023-08-21T04:04:25;10.18;;;6.13;;
30173;SDS011;16985;50.814;8.530;2023-08-21T04:06:51;12.10;;;6.25;;
30173;SDS011;16985;50.814;8.530;2023-08-21T04:09:17;6.90;;;5.72;;
30173;SDS011;16985;50.814;8.530;2023-08-21T04:11:43;10.02;;;6.75;;
30173;SDS011;16985;50.814;8.530;2023-08-21T04:14:09;13.60;;;6.70;;
30173;SDS011;16985;50.814;8.530;2023-08-21T04:16:34;10.20;;;5.75;;
30173;SDS011;16985;50.814;8.530;2023-08-21T04:19:00;7.10;;;5.32;;
30173;SDS011;16985;50.814;8.530;2023-08-21T04:21:26;8.65;;;5.80;;
30173;SDS011;16985;50.814;8.530;2023-08-21T04:23:52;10.75;;;5.93;;
30173;SDS011;16985;50.814;8.530;2023-08-21T04:26:18;6.50;;;5.65;;
30173;SDS011;16985;50.814;8.530;2023-08-21T04:28:45;8.48;;;5.60;;
30173;SDS011;16985;50.814;8.530;2023-08-21T04:31:11;7.05;;;5.30;;
30173;SDS011;16985;50.814;8.530;2023-08-21T04:33:37;7.10;;;5.13;;
30173;SDS011;16985;50.814;8.530;2023-08-21T04:36:03;13.73;;;6.00;;
30173;SDS011;16985;50.814;8.530;2023-08-21T04:38:29;8.18;;;5.70;;
30173;SDS011;16985;50.814;8.530;2023-08-21T04:40:55;17.08;;;5.65;;
30173;SDS011;16985;50.814;8.530;2023-08-21T04:43:21;8.00;;;5.20;;
30173;SDS011;16985;50.814;8.530;2023-08-21T04:45:49;11.10;;;5.57;;
30173;SDS011;16985;50.814;8.530;2023-08-21T04:48:19;6.50;;;5.00;;
30173;SDS011;16985;50.814;8.530;2023-08-21T04:50:47;9.00;;;6.05;;
30173;SDS011;16985;50.814;8.530;2023-08-21T04:53:13;11.02;;;5.82;;
30173;SDS011;16985;50.814;8.530;2023-08-21T04:55:39;11.45;;;6.25;;
30173;SDS011;16985;50.814;8.530;2023-08-21T04:58:07;11.15;;;5.60;;
30173;SDS011;16985;50.814;8.530;2023-08-21T05:00:34;10.68;;;6.30;;
30173;SDS011;16985;50.814;8.530;2023-08-21T05:03:00;10.02;;;6.05;;
30173;SDS011;16985;50.814;8.530;2023-08-21T05:05:28;10.95;;;6.28;;
30173;SDS011;16985;50.814;8.530;2023-08-21T05:07:54;12.57;;;6.80;;
30173;SDS011;16985;50.814;8.530;2023-08-21T05:10:19;9.95;;;6.15;;
30173;SDS011;16985;50.814;8.530;2023-08-21T05:12:46;8.98;;;5.72;;
30173;SDS011;16985;50.814;8.530;2023-08-21T05:15:12;14.85;;;6.28;;
30173;SDS011;16985;50.814;8.530;2023-08-21T05:17:39;6.20;;;5.33;;
30173;SDS011;16985;50.814;8.530;2023-08-21T05:20:05;8.13;;;6.10;;
30173;SDS011;16985;50.814;8.530;2023-08-21T05:22:32;7.93;;;5.95;;
30173;SDS011;16985;50.814;8.530;2023-08-21T05:24:57;11.43;;;5.72;;
30173;SDS011;16985;50.814;8.530;2023-08-21T05:27:23;6.85;;;5.68;;
30173;SDS011;16985;50.814;8.530;2023-08-21T05:29:49;8.55;;;5.82;;
30173;SDS011;16985;50.814;8.530;2023-08-21T05:32:16;14.45;;;5.68;;
30173;SDS011;16985;50.814;8.530;2023-08-21T05:34:43;6.40;;;5.55;;
30173;SDS011;16985;50.814;8.530;2023-08-21T05:37:10;12.50;;;5.95;;
30173;SDS011;16985;50.814;8.530;2023-08-21T05:39:36;6.72;;;5.43;;
30173;SDS011;16985;50.814;8.530;2023-08-21T05:42:02;6.40;;;5.38;;
30173;SDS011;16985;50.814;8.530;2023-08-21T05:44:28;9.68;;;5.88;;
30173;SDS011;16985;50.814;8.530;2023-08-21T05:46:54;9.18;;;6.78;;
30173;SDS011;16985;50.814;8.530;2023-08-21T05:49:19;9.13;;;6.43;;
30173;SDS011;16985;50.814;8.530;2023-08-21T05:51:45;8.13;;;5.97;;
30173;SDS011;16985;50.814;8.530;2023-08-21T05:54:11;10.13;;;6.97;;
30173;SDS011;16985;50.814;8.530;2023-08-21T05:56:39;12.40;;;7.18;;
30173;SDS011;16985;50.814;8.530;2023-08-21T05:59:05;8.07;;;6.22;;
30173;SDS011;16985;50.814;8.530;2023-08-21T06:01:31;7.20;;;5.82;;
30173;SDS011;16985;50.814;8.530;2023-08-21T06:03:57;9.02;;;6.50;;
30173;SDS011;16985;50.814;8.530;2023-08-21T06:06:41;6.90;;;6.30;;
30173;SDS011;16985;50.814;8.530;2023-08-21T06:09:07;13.15;;;6.65;;
30173;SDS011;16985;50.814;8.530;2023-08-21T06:11:33;9.30;;;6.45;;
30173;SDS011;16985;50.814;8.530;2023-08-21T06:13:59;9.32;;;6.95;;
30173;SDS011;16985;50.814;8.530;2023-08-21T06:16:25;13.85;;;6.95;;
30173;SDS011;16985;50.814;8.530;2023-08-21T06:18:51;7.13;;;6.40;;
30173;SDS011;16985;50.814;8.530;2023-08-21T06:21:17;9.15;;;7.30;;
30173;SDS011;16985;50.814;8.530;2023-08-21T06:23:42;10.88;;;7.13;;
30173;SDS011;16985;50.814;8.530;2023-08-21T06:26:08;7.50;;;6.70;;
30173;SDS011;16985;50.814;8.530;2023-08-21T06:28:34;6.65;;;5.75;;
30173;SDS011;16985;50.814;8.530;2023-08-21T06:31:00;8.32;;;6.63;;
30173;SDS011;16985;50.814;8.530;2023-08-21T06:33:32;9.30;;;6.47;;
30173;SDS011;16985;50.814;8.530;2023-08-21T06:35:58;9.55;;;6.70;;
30173;SDS011;16985;50.814;8.530;2023-08-21T06:38:25;12.10;;;6.30;;
30173;SDS011;16985;50.814;8.530;2023-08-21T06:40:51;7.40;;;6.35;;
30173;SDS011;16985;50.814;8.530;2023-08-21T06:43:17;10.55;;;6.13;;
30173;SDS011;16985;50.814;8.530;2023-08-21T06:45:46;7.43;;;6.72;;
30173;SDS011;16985;50.814;8.530;2023-08-21T06:48:11;12.63;;;7.63;;
30173;SDS011;16985;50.814;8.530;2023-08-21T06:50:37;13.43;;;7.22;;
30173;SDS011;16985;50.814;8.530;2023-08-21T06:53:03;7.75;;;7.03;;
30173;SDS011;16985;50.814;8.530;2023-08-21T06:55:29;10.52;;;6.65;;
30173;SDS011;16985;50.814;8.530;2023-08-21T06:57:55;10.95;;;7.45;;
30173;SDS011;16985;50.814;8.530;2023-08-21T07:00:21;10.68;;;6.78;;
30173;SDS011;16985;50.814;8.530;2023-08-21T07:02:46;10.75;;;6.75;;
30173;SDS011;16985;50.814;8.530;2023-08-21T07:05:12;10.00;;;6.80;;
30173;SDS011;16985;50.814;8.530;2023-08-21T07:07:39;11.40;;;7.35;;
30173;SDS011;16985;50.814;8.530;2023-08-21T07:10:04;13.25;;;7.80;;
30173;SDS011;16985;50.814;8.530;2023-08-21T07:12:31;12.23;;;8.18;;
30173;SDS011;16985;50.814;8.530;2023-08-21T07:14:56;14.75;;;7.95;;
30173;SDS011;16985;50.814;8.530;2023-08-21T07:17:22;12.77;;;8.15;;
30173;SDS011;16985;50.814;8.530;2023-08-21T07:19:48;13.05;;;7.82;;
30173;SDS011;16985;50.814;8.530;2023-08-21T07:22:17;13.82;;;7.93;;
30173;SDS011;16985;50.814;8.530;2023-08-21T07:24:43;9.65;;;7.35;;
30173;SDS011;16985;50.814;8.530;2023-08-21T07:27:09;12.95;;;6.90;;
30173;SDS011;16985;50.814;8.530;2023-08-21T07:29:35;13.02;;;6.78;;
30173;SDS011;16985;50.814;8.530;2023-08-21T07:32:01;12.70;;;7.97;;
30173;SDS011;16985;50.814;8.530;2023-08-21T07:34:27;11.75;;;6.30;;
30173;SDS011;16985;50.814;8.530;2023-08-21T07:36:53;15.07;;;7.25;;
30173;SDS011;16985;50.814;8.530;2023-08-21T07:39:18;10.70;;;6.60;;
30173;SDS011;16985;50.814;8.530;2023-08-21T07:41:44;11.43;;;6.90;;
30173;SDS011;16985;50.814;8.530;2023-08-21T07:44:10;15.00;;;7.00;;
30173;SDS011;16985;50.814;8.530;2023-08-21T07:46:36;9.48;;;6.28;;
30173;SDS011;16985;50.814;8.530;2023-08-21T07:49:01;7.28;;;5.88;;
30173;SDS011;16985;50.814;8.530;2023-08-21T07:51:27;7.63;;;6.00;;
30173;SDS011;16985;50.814;8.530;2023-08-21T07:53:53;13.88;;;6.35;;
30173;SDS011;16985;50.814;8.530;2023-08-21T07:56:19;7.47;;;6.53;;
30173;SDS011;16985;50.814;8.530;2023-08-21T07:58:45;13.30;;;6.57;;
30173;SDS011;16985;50.814;8.530;2023-08-21T08:01:10;13.45;;;6.57;;
30173;SDS011;16985;50.814;8.530;2023-08-21T08:03:36;10.30;;;6.20;;
30173;SDS011;16985;50.814;8.530;2023-08-21T08:06:02;13.98;;;6.85;;
30173;SDS011;16985;50.814;8.530;2023-08-21T08:08:28;10.82;;;6.50;;
30173;SDS011;16985;50.814;8.530;2023-08-21T08:10:54;11.15;;;6.78;;
30173;SDS011;16985;50.814;8.530;2023-08-21T08:13:20;12.77;;;6.05;;
30173;SDS011;16985;50.814;8.530;2023-08-21T08:15:46;11.88;;;6.65;;
30173;SDS011;16985;50.814;8.530;2023-08-21T08:18:12;10.15;;;6.28;;
30173;SDS011;16985;50.814;8.530;2023-08-21T08:20:38;11.05;;;7.13;;
30173;SDS011;16985;50.814;8.530;2023-08-21T08:23:05;9.38;;;6.32;;
30173;SDS011;16985;50.814;8.530;2023-08-21T08:25:31;7.90;;;5.80;;
30173;SDS011;16985;50.814;8.530;2023-08-21T08:27:56;8.43;;;5.95;;
30173;SDS011;16985;50.814;8.530;2023-08-21T08:30:22;14.98;;;6.25;;
30173;SDS011;16985;50.814;8.530;2023-08-21T08:32:49;10.27;;;6.40;;
30173;SDS011;16985;50.814;8.530;2023-08-21T08:35:15;6.90;;;5.30;;
30173;SDS011;16985;50.814;8.530;2023-08-21T08:37:41;7.07;;;4.78;;
30173;SDS011;16985;50.814;8.530;2023-08-21T08:40:11;7.07;;;5.07;;
30173;SDS011;16985;50.814;8.530;2023-08-21T08:42:37;9.23;;;5.07;;
30173;SDS011;16985;50.814;8.530;2023-08-21T08:45:04;13.25;;;6.13;;
30173;SDS011;16985;50.814;8.530;2023-08-21T08:47:34;8.40;;;5.80;;
30173;SDS011;16985;50.814;8.530;2023-08-21T08:50:07;9.98;;;6.53;;
30173;SDS011;16985;50.814;8.530;2023-08-21T08:52:34;8.30;;;5.82;;
30173;SDS011;16985;50.814;8.530;2023-08-21T08:55:02;8.20;;;5.20;;
30173;SDS011;16985;50.814;8.530;2023-08-21T08:57:30;10.23;;;6.22;;
30173;SDS011;16985;50.814;8.530;2023-08-21T08:59:56;7.82;;;5.97;;
30173;SDS011;16985;50.814;8.530;2023-08-21T09:02:23;9.48;;;5.60;;
30173;SDS011;16985;50.814;8.530;2023-08-21T09:04:52;9.18;;;5.35;;
30173;SDS011;16985;50.814;8.530;2023-08-21T09:07:18;8.40;;;5.63;;
30173;SDS011;16985;50.814;8.530;2023-08-21T09:09:46;7.57;;;5.77;;
30173;SDS011;16985;50.814;8.530;2023-08-21T09:12:18;7.30;;;5.40;;
30173;SDS011;16985;50.814;8.530;2023-08-21T09:14:44;12.30;;;5.47;;
30173;SDS011;16985;50.814;8.530;2023-08-21T09:17:11;6.38;;;5.13;;
30173;SDS011;16985;50.814;8.530;2023-08-21T09:19:37;6.70;;;4.90;;
30173;SDS011;16985;50.814;8.530;2023-08-21T09:22:14;7.15;;;5.15;;
30173;SDS011;16985;50.814;8.530;2023-08-21T09:27:32;6.88;;;5.13;;
30173;SDS011;16985;50.814;8.530;2023-08-21T09:29:59;8.75;;;5.03;;
30173;SDS011;16985;50.814;8.530;2023-08-21T09:32:29;6.45;;;4.82;;
30173;SDS011;16985;50.814;8.530;2023-08-21T09:34:54;8.40;;;5.20;;
30173;SDS011;16985;50.814;8.530;2023-08-21T09:37:20;7.53;;;4.75;;
30173;SDS011;16985;50.814;8.530;2023-08-21T09:39:46;8.43;;;5.53;;
30173;SDS011;16985;50.814;8.530;2023-08-21T09:42:12;8.52;;;4.68;;
30173;SDS011;16985;50.814;8.530;2023-08-21T09:44:39;5.15;;;4.65;;
30173;SDS011;16985;50.814;8.530;2023-08-21T09:47:11;6.65;;;4.45;;
30173;SDS011;16985;50.814;8.530;2023-08-21T09:49:38;6.55;;;4.90;;
30173;SDS011;16985;50.814;8.530;2023-08-21T09:52:08;7.80;;;4.87;;
30173;SDS011;16985;50.814;8.530;2023-08-21T09:54:39;5.65;;;4.43;;
30173;SDS011;16985;50.814;8.530;2023-08-21T09:57:07;5.80;;;4.25;;
30173;SDS011;16985;50.814;8.530;2023-08-21T09:59:33;6.95;;;4.57;;
30173;SDS011;16985;50.814;8.530;2023-08-21T10:01:59;7.85;;;4.82;;
30173;SDS011;16985;50.814;8.530;2023-08-21T10:04:30;6.63;;;4.63;;
30173;SDS011;16985;50.814;8.530;2023-08-21T10:07:00;5.63;;;3.70;;
30173;SDS011;16985;50.814;8.530;2023-08-21T10:09:28;5.38;;;4.13;;
30173;SDS011;16985;50.814;8.530;2023-08-21T10:11:55;5.30;;;3.70;;
30173;SDS011;16985;50.814;8.530;2023-08-21T10:14:22;5.80;;;4.47;;
30173;SDS011;16985;50.814;8.530;2023-08-21T10:16:50;7.53;;;4.40;;
30173;SDS011;16985;50.814;8.530;2023-08-21T10:19:18;6.03;;;4.47;;
30173;SDS011;16985;50.814;8.530;2023-08-21T10:21:46;6.50;;;4.32;;
30173;SDS011;16985;50.814;8.530;2023-08-21T10:24:14;9.20;;;4.60;;
30173;SDS011;16985;50.814;8.530;2023-08-21T10:26:59;5.15;;;4.38;;
30173;SDS011;16985;50.814;8.530;2023-08-21T10:29:26;5.85;;;4.30;;
30173;SDS011;16985;50.814;8.530;2023-08-21T10:31:59;6.80;;;4.25;;
30173;SDS011;16985;50.814;8.530;2023-08-21T10:34:35;7.60;;;4.05;;
30173;SDS011;16985;50.814;8.530;2023-08-21T10:37:07;4.40;;;3.42;;
30173;SDS011;16985;50.814;8.530;2023-08-21T10:39:41;5.60;;;3.55;;
30173;SDS011;16985;50.814;8.530;2023-08-21T10:42:21;5.00;;;3.67;;
30173;SDS011;16985;50.814;8.530;2023-08-21T10:45:13;6.47;;;4.20;;
30173;SDS011;16985;50.814;8.530;2023-08-21T10:47:39;5.15;;;3.80;;
30173;SDS011;16985;50.814;8.530;2023-08-21T10:50:05;5.63;;;3.58;;
30173;SDS011;16985;50.814;8.530;2023-08-21T10:52:40;4.13;;;3.40;;
30173;SDS011;16985;50.814;8.530;2023-08-21T10:55:10;5.60;;;3.38;;
30173;SDS011;16985;50.814;8.530;2023-08-21T10:57:37;4.30;;;3.38;;
30173;SDS011;16985;50.814;8.530;2023-08-21T11:00:04;4.77;;;3.77;;
30173;SDS011;16985;50.814;8.530;2023-08-21T11:02:34;3.35;;;2.92;;
30173;SDS011;16985;50.814;8.530;2023-08-21T11:07:28;6.43;;;3.33;;
30173;SDS011;16985;50.814;8.530;2023-08-21T11:09:55;5.38;;;2.28;;
30173;SDS011;16985;50.814;8.530;2023-08-21T11:12:22;7.25;;;2.15;;
30173;SDS011;16985;50.814;8.530;2023-08-21T11:14:49;5.85;;;2.53;;
30173;SDS011;16985;50.814;8.530;2023-08-21T11:17:15;4.07;;;2.70;;
30173;SDS011;16985;50.814;8.530;2023-08-21T11:19:43;3.33;;;2.45;;
30173;SDS011;16985;50.814;8.530;2023-08-21T11:22:10;2.95;;;2.55;;
30173;SDS011;16985;50.814;8.530;2023-08-21T11:27:05;6.15;;;3.22;;
30173;SDS011;16985;50.814;8.530;2023-08-21T11:29:44;4.32;;;2.30;;
30173;SDS011;16985;50.814;8.530;2023-08-21T11:32:19;7.80;;;2.70;;
30173;SDS011;16985;50.814;8.530;2023-08-21T11:34:48;4.47;;;2.38;;
30173;SDS011;16985;50.814;8.530;2023-08-21T11:37:20;4.22;;;2.97;;
30173;SDS011;16985;50.814;8.530;2023-08-21T11:39:48;4.45;;;2.50;;
30173;SDS011;16985;50.814;8.530;2023-08-21T11:42:16;3.35;;;2.22;;
30173;SDS011;16985;50.814;8.530;2023-08-21T11:44:49;5.90;;;2.55;;
30173;SDS011;16985;50.814;8.530;2023-08-21T11:47:17;5.22;;;2.22;;
30173;SDS011;16985;50.814;8.530;2023-08-21T11:49:47;5.57;;;2.65;;
30173;SDS011;16985;50.814;8.530;2023-08-21T11:52:17;5.20;;;3.03;;
30173;SDS011;16985;50.814;8.530;2023-08-21T11:54:49;3.13;;;2.70;;
30173;SDS011;16985;50.814;8.530;2023-08-21T11:57:17;5.45;;;3.13;;
30173;SDS011;16985;50.814;8.530;2023-08-21T11:59:49;6.00;;;2.78;;
30173;SDS011;16985;50.814;8.530;2023-08-21T12:02:27;4.32;;;2.92;;
30173;SDS011;16985;50.814;8.530;2023-08-21T12:05:03;4.07;;;2.83;;
30173;SDS011;16985;50.814;8.530;2023-08-21T12:09:57;3.97;;;3.00;;
30173;SDS011;16985;50.814;8.530;2023-08-21T12:12:23;4.72;;;2.45;;
30173;SDS011;16985;50.814;8.530;2023-08-21T12:14:49;3.90;;;2.72;;
30173;SDS011;16985;50.814;8.530;2023-08-21T12:17:15;2.67;;;2.40;;
30173;SDS011;16985;50.814;8.530;2023-08-21T12:19:41;3.45;;;3.03;;
30173;SDS011;16985;50.814;8.530;2023-08-21T12:22:08;3.60;;;3.30;;
30173;SDS011;16985;50.814;8.530;2023-08-21T12:24:35;5.05;;;3.10;;
30173;SDS011;16985;50.814;8.530;2023-08-21T12:27:02;7.55;;;3.30;;
30173;SDS011;16985;50.814;8.530;2023-08-21T12:29:29;4.63;;;2.75;;
30173;SDS011;16985;50.814;8.530;2023-08-21T12:31:55;4.50;;;3.15;;
30173;SDS011;16985;50.814;8.530;2023-08-21T12:34:21;3.25;;;2.92;;
30173;SDS011;16985;50.814;8.530;2023-08-21T12:36:47;3.08;;;2.65;;
30173;SDS011;16985;50.814;8.530;2023-08-21T12:39:15;4.22;;;3.05;;
30173;SDS011;16985;50.814;8.530;2023-08-21T12:41:41;5.18;;;2.85;;
30173;SDS011;16985;50.814;8.530;2023-08-21T12:44:08;6.88;;;2.80;;
30173;SDS011;16985;50.814;8.530;2023-08-21T12:46:34;5.50;;;2.75;;
30173;SDS011;16985;50.814;8.530;2023-08-21T12:49:01;6.75;;;3.22;;
30173;SDS011;16985;50.814;8.530;2023-08-21T12:51:27;4.93;;;3.10;;
30173;SDS011;16985;50.814;8.530;2023-08-21T12:53:54;2.83;;;2.00;;
30173;SDS011;16985;50.814;8.530;2023-08-21T12:56:20;4.32;;;3.13;;
30173;SDS011;16985;50.814;8.530;2023-08-21T12:58:46;3.00;;;2.30;;
30173;SDS011;16985;50.814;8.530;2023-08-21T13:01:13;2.73;;;2.07;;
30173;SDS011;16985;50.814;8.530;2023-08-21T13:03:43;2.45;;;2.08;;
30173;SDS011;16985;50.814;8.530;2023-08-21T13:06:13;6.50;;;2.10;;
30173;SDS011;16985;50.814;8.530;2023-08-21T13:08:39;4.63;;;2.10;;
30173;SDS011;16985;50.814;8.530;2023-08-21T13:11:05;2.92;;;2.30;;
30173;SDS011;16985;50.814;8.530;2023-08-21T13:13:31;3.33;;;2.00;;
30173;SDS011;16985;50.814;8.530;2023-08-21T13:15:58;3.25;;;1.67;;
30173;SDS011;16985;50.814;8.530;2023-08-21T13:18:25;4.60;;;2.90;;
30173;SDS011;16985;50.814;8.530;2023-08-21T13:20:51;3.55;;;2.17;;
30173;SDS011;16985;50.814;8.530;2023-08-21T13:23:17;2.35;;;1.83;;
30173;SDS011;16985;50.814;8.530;2023-08-21T13:25:43;2.58;;;1.98;;
30173;SDS011;16985;50.814;8.530;2023-08-21T13:28:09;2.92;;;1.83;;
30173;SDS011;16985;50.814;8.530;2023-08-21T13:30:36;4.40;;;2.00;;
30173;SDS011;16985;50.814;8.530;2023-08-21T13:33:02;2.33;;;1.75;;
30173;SDS011;16985;50.814;8.530;2023-08-21T13:35:29;3.40;;;1.80;;
30173;SDS011;16985;50.814;8.530;2023-08-21T13:37:56;2.75;;;1.75;;
30173;SDS011;16985;50.814;8.530;2023-08-21T13:40:23;3.25;;;2.00;;
30173;SDS011;16985;50.814;8.530;2023-08-21T13:45:17;2.50;;;1.48;;
30173;SDS011;16985;50.814;8.530;2023-08-21T13:47:45;2.28;;;1.73;;
30173;SDS011;16985;50.814;8.530;2023-08-21T13:50:13;3.47;;;1.77;;
30173;SDS011;16985;50.814;8.530;2023-08-21T13:52:40;2.67;;;1.60;;
30173;SDS011;16985;50.814;8.530;2023-08-21T13:55:07;4.20;;;1.48;;
30173;SDS011;16985;50.814;8.530;2023-08-21T13:57:34;3.05;;;1.48;;
30173;SDS011;16985;50.814;8.530;2023-08-21T14:00:02;3.30;;;1.65;;
30173;SDS011;16985;50.814;8.530;2023-08-21T14:02:33;2.00;;;1.70;;
30173;SDS011;16985;50.814;8.530;2023-08-21T14:05:00;3.13;;;2.20;;
30173;SDS011;16985;50.814;8.530;2023-08-21T14:07:26;5.03;;;1.65;;
30173;SDS011;16985;50.814;8.530;2023-08-21T14:09:52;7.55;;;1.95;;
30173;SDS011;16985;50.814;8.530;2023-08-21T14:12:18;2.70;;;1.90;;
30173;SDS011;16985;50.814;8.530;2023-08-21T14:14:44;2.20;;;1.63;;
30173;SDS011;16985;50.814;8.530;2023-08-21T14:17:10;3.08;;;1.75;;
30173;SDS011;16985;50.814;8.530;2023-08-21T14:19:36;2.45;;;1.63;;
30173;SDS011;16985;50.814;8.530;2023-08-21T14:22:02;3.83;;;2.13;;
30173;SDS011;16985;50.814;8.530;2023-08-21T14:24:28;2.05;;;1.65;;
30173;SDS011;16985;50.814;8.530;2023-08-21T14:26:54;4.68;;;1.50;;
30173;SDS011;16985;50.814;8.530;2023-08-21T14:29:20;3.03;;;1.73;;
30173;SDS011;16985;50.814;8.530;2023-08-21T14:31:45;2.10;;;1.70;;
30173;SDS011;16985;50.814;8.530;2023-08-21T14:34:12;2.20;;;2.00;;
30173;SDS011;16985;50.814;8.530;2023-08-21T14:36:39;3.53;;;1.70;;
30173;SDS011;16985;50.814;8.530;2023-08-21T14:39:05;3.75;;;2.42;;
30173;SDS011;16985;50.814;8.530;2023-08-21T14:41:31;1.85;;;1.67;;
30173;SDS011;16985;50.814;8.530;2023-08-21T14:43:57;2.75;;;2.08;;
30173;SDS011;16985;50.814;8.530;2023-08-21T14:46:23;2.58;;;2.00;;
30173;SDS011;16985;50.814;8.530;2023-08-21T14:48:48;3.28;;;2.08;;
30173;SDS011;16985;50.814;8.530;2023-08-21T14:51:14;2.28;;;1.83;;
30173;SDS011;16985;50.814;8.530;2023-08-21T14:53:40;3.00;;;1.85;;
30173;SDS011;16985;50.814;8.530;2023-08-21T14:56:06;2.58;;;1.90;;
30173;SDS011;16985;50.814;8.530;2023-08-21T14:58:32;4.25;;;2.30;;